Time,TemperatureF,DewpointF,PressureIn,WindDirection,WindDirectionDegrees,WindSpeedMPH,WindSpeedGustMPH,Humidity,HourlyPrecipIn,Conditions,Clouds,dailyrainin,SoftwareType,DateUTC
2013-05-10 00:03:00,71.7,64.5,29.89,South,176,0.0,0.0,78,0.00,,SKC,0.00,VWS V14.01,2013-05-10 05:03:00,
2013-05-10 00:08:00,71.6,64.4,29.88,South,176,0.0,0.0,78,0.00,,SKC,0.00,VWS V14.01,2013-05-10 05:08:00,
2013-05-10 00:14:00,71.5,64.7,29.88,South,176,0.0,0.0,79,0.00,,SKC,0.00,VWS V14.01,2013-05-10 05:14:00,
2013-05-10 00:19:00,71.4,64.9,29.88,South,176,0.0,0.0,80,0.00,,SKC,0.00,VWS V14.01,2013-05-10 05:19:00,
2013-05-10 00:24:00,71.3,65.5,29.87,South,176,0.0,0.0,82,0.00,,SKC,0.00,VWS V14.01,2013-05-10 05:24:00,
2013-05-10 00:29:00,71.1,65.0,29.87,South,176,0.0,0.0,81,0.00,,SKC,0.00,VWS V14.01,2013-05-10 05:29:00,
2013-05-10 00:34:00,71.0,64.2,29.88,South,176,0.0,0.0,79,0.00,,SKC,0.00,VWS V14.01,2013-05-10 05:34:00,
2013-05-10 00:39:00,71.0,64.2,29.88,South,176,0.0,0.0,79,0.00,,SKC,0.00,VWS V14.01,2013-05-10 05:39:00,
2013-05-10 00:44:00,71.2,64.4,29.87,South,176,0.0,0.0,79,0.00,,SKC,0.00,VWS V14.01,2013-05-10 05:44:00,
2013-05-10 00:49:00,71.3,64.1,29.87,South,176,3.0,3.0,78,0.00,,SKC,0.00,VWS V14.01,2013-05-10 05:49:00,
2013-05-10 00:54:00,71.5,63.9,29.87,South,176,0.0,3.0,77,0.00,,SKC,0.00,VWS V14.01,2013-05-10 05:54:00,
2013-05-10 00:59:00,71.6,64.0,29.87,SSE,163,2.0,5.0,77,0.00,,SKC,0.00,VWS V14.01,2013-05-10 05:59:00,
2013-05-10 01:04:00,71.6,64.0,29.87,SSE,149,1.0,3.0,77,0.00,,SKC,0.00,VWS V14.01,2013-05-10 06:04:00,
2013-05-10 01:09:00,71.6,64.0,29.87,SSE,149,3.0,3.0,77,0.00,,SKC,0.00,VWS V14.01,2013-05-10 06:09:00,
2013-05-10 01:15:00,71.6,64.0,29.87,SSE,150,0.0,3.0,77,0.00,,SKC,0.00,VWS V14.01,2013-05-10 06:15:00,
2013-05-10 01:20:00,71.5,64.3,29.87,South,175,4.0,6.0,78,0.00,,SKC,0.00,VWS V14.01,2013-05-10 06:20:00,
2013-05-10 01:25:00,71.2,65.1,29.89,SSW,205,3.0,21.0,81,0.01,,SKC,0.01,VWS V14.01,2013-05-10 06:25:00,
2013-05-10 01:30:00,68.9,64.6,29.89,WSW,251,3.0,21.0,86,0.07,,SKC,0.07,VWS V14.01,2013-05-10 06:30:00,
2013-05-10 01:35:00,67.7,64.7,29.88,SSW,195,4.0,10.0,90,0.12,,SKC,0.12,VWS V14.01,2013-05-10 06:35:00,
2013-05-10 01:40:00,67.2,64.5,29.88,SSE,154,9.0,13.0,91,0.18,,SKC,0.18,VWS V14.01,2013-05-10 06:40:00,
2013-05-10 01:46:00,66.7,64.3,29.88,SSW,211,6.0,13.0,92,0.20,,SKC,0.20,VWS V14.01,2013-05-10 06:46:00,
2013-05-10 01:51:00,66.5,64.1,29.89,South,178,4.0,13.0,92,0.22,,SKC,0.22,VWS V14.01,2013-05-10 06:51:00,
2013-05-10 01:56:00,66.2,64.1,29.89,South,176,0.0,13.0,93,0.24,,SKC,0.24,VWS V14.01,2013-05-10 06:56:00,
2013-05-10 02:01:00,66.1,64.0,29.88,SSE,163,2.0,13.0,93,0.25,,SKC,0.25,VWS V14.01,2013-05-10 07:01:00,
2013-05-10 02:06:00,65.9,63.8,29.88,SSE,153,2.0,5.0,93,0.25,,SKC,0.26,VWS V14.01,2013-05-10 07:06:00,
2013-05-10 02:11:00,65.7,63.6,29.88,SSE,167,0.0,5.0,93,0.26,,SKC,0.26,VWS V14.01,2013-05-10 07:11:00,
2013-05-10 02:16:00,65.6,63.5,29.87,SSE,167,0.0,5.0,93,0.27,,SKC,0.27,VWS V14.01,2013-05-10 07:16:00,
2013-05-10 02:21:00,65.5,63.7,29.87,SSE,167,0.0,5.0,94,0.27,,SKC,0.27,VWS V14.01,2013-05-10 07:21:00,
2013-05-10 02:26:00,65.5,63.7,29.87,SSE,167,0.0,5.0,94,0.27,,SKC,0.27,VWS V14.01,2013-05-10 07:26:00,
2013-05-10 02:31:00,65.4,63.6,29.86,SSE,167,0.0,5.0,94,0.27,,SKC,0.27,VWS V14.01,2013-05-10 07:31:00,
2013-05-10 02:36:00,65.4,63.6,29.86,SSE,167,0.0,0.0,94,0.19,,SKC,0.28,VWS V14.01,2013-05-10 07:36:00,
2013-05-10 02:41:00,65.5,63.7,29.85,SSE,167,0.0,0.0,94,0.19,,SKC,0.28,VWS V14.01,2013-05-10 07:41:00,
2013-05-10 02:47:00,65.5,63.7,29.85,SSE,167,0.0,0.0,94,0.19,,SKC,0.28,VWS V14.01,2013-05-10 07:47:00,
2013-05-10 02:52:00,65.6,63.8,29.84,SSE,167,0.0,0.0,94,0.19,,SKC,0.28,VWS V14.01,2013-05-10 07:52:00,
2013-05-10 02:57:00,65.5,63.7,29.84,SSE,167,0.0,0.0,94,0.19,,SKC,0.28,VWS V14.01,2013-05-10 07:57:00,
2013-05-10 03:02:00,65.4,63.6,29.83,SSE,167,0.0,0.0,94,0.19,,SKC,0.28,VWS V14.01,2013-05-10 08:02:00,
2013-05-10 03:07:00,65.3,63.5,29.83,SSE,167,0.0,0.0,94,0.03,,SKC,0.28,VWS V14.01,2013-05-10 08:07:00,
2013-05-10 03:12:00,65.2,63.4,29.84,SSE,167,0.0,0.0,94,0.03,,SKC,0.28,VWS V14.01,2013-05-10 08:12:00,
2013-05-10 03:17:00,65.2,63.7,29.83,SSE,167,0.0,0.0,95,0.03,,SKC,0.28,VWS V14.01,2013-05-10 08:17:00,
2013-05-10 03:22:00,65.3,63.8,29.83,SSE,167,0.0,0.0,95,0.03,,SKC,0.28,VWS V14.01,2013-05-10 08:22:00,
2013-05-10 03:27:00,65.5,64.0,29.83,SSE,167,0.0,1.0,95,0.03,,SKC,0.28,VWS V14.01,2013-05-10 08:27:00,
2013-05-10 03:32:00,65.5,64.0,29.82,SSE,167,3.0,3.0,95,0.03,,SKC,0.28,VWS V14.01,2013-05-10 08:32:00,
2013-05-10 03:37:00,65.4,63.9,29.83,SSE,167,0.0,3.0,95,0.01,,SKC,0.28,VWS V14.01,2013-05-10 08:37:00,
2013-05-10 03:42:00,65.4,63.9,29.83,SSE,167,0.0,3.0,95,0.01,,SKC,0.28,VWS V14.01,2013-05-10 08:42:00,
2013-05-10 03:47:00,65.4,63.9,29.83,SSE,167,0.0,3.0,95,0.01,,SKC,0.28,VWS V14.01,2013-05-10 08:47:00,
2013-05-10 03:52:00,65.3,63.8,29.83,SSE,167,0.0,3.0,95,0.01,,SKC,0.28,VWS V14.01,2013-05-10 08:52:00,
2013-05-10 03:58:00,65.3,63.8,29.84,SSE,167,0.0,3.0,95,0.01,,SKC,0.28,VWS V14.01,2013-05-10 08:58:00,
2013-05-10 04:04:00,65.4,63.9,29.84,ENE,74,2.0,5.0,95,0.03,,SKC,0.31,VWS V14.01,2013-05-10 09:04:00,
2013-05-10 04:09:00,65.2,63.7,29.85,ENE,73,0.0,5.0,95,0.06,,SKC,0.34,VWS V14.01,2013-05-10 09:09:00,
2013-05-10 04:14:00,65.0,63.5,29.85,ESE,105,2.0,5.0,95,0.09,,SKC,0.37,VWS V14.01,2013-05-10 09:14:00,
2013-05-10 04:19:00,64.8,63.3,29.84,SSE,160,0.0,6.0,95,0.12,,SKC,0.40,VWS V14.01,2013-05-10 09:19:00,
2013-05-10 04:25:00,64.7,63.2,29.84,SSE,161,2.0,6.0,95,0.15,,SKC,0.43,VWS V14.01,2013-05-10 09:25:00,
2013-05-10 04:30:00,64.6,63.1,29.83,SSE,153,2.0,6.0,95,0.18,,SKC,0.46,VWS V14.01,2013-05-10 09:30:00,
2013-05-10 04:35:00,64.7,63.2,29.83,SSE,148,3.0,4.0,95,0.21,,SKC,0.49,VWS V14.01,2013-05-10 09:35:00,
2013-05-10 04:40:00,64.5,63.0,29.83,East,83,2.0,5.0,95,0.23,,SKC,0.51,VWS V14.01,2013-05-10 09:40:00,
2013-05-10 04:45:00,64.4,63.2,29.83,SE,138,0.0,5.0,96,0.26,,SKC,0.54,VWS V14.01,2013-05-10 09:45:00,
2013-05-10 04:50:00,64.3,63.1,29.83,SE,137,4.0,5.0,96,0.28,,SKC,0.56,VWS V14.01,2013-05-10 09:50:00,
2013-05-10 04:55:00,64.2,63.0,29.82,SE,137,3.0,5.0,96,0.31,,SKC,0.59,VWS V14.01,2013-05-10 09:55:00,
2013-05-10 05:00:00,64.2,63.0,29.82,SE,141,3.0,5.0,96,0.33,,SKC,0.61,VWS V14.01,2013-05-10 10:00:00,
2013-05-10 05:06:00,64.1,62.9,29.85,SSE,155,0.0,3.0,96,0.33,,SKC,0.63,VWS V14.01,2013-05-10 10:06:00,
2013-05-10 05:11:00,64.4,63.2,29.84,SSE,155,2.0,3.0,96,0.35,,SKC,0.65,VWS V14.01,2013-05-10 10:11:00,
2013-05-10 05:16:00,64.4,63.2,29.84,SSE,155,0.0,3.0,96,0.37,,SKC,0.67,VWS V14.01,2013-05-10 10:16:00,
2013-05-10 05:21:00,64.5,63.3,29.83,SSE,155,0.0,3.0,96,0.40,,SKC,0.70,VWS V14.01,2013-05-10 10:21:00,
2013-05-10 05:26:00,64.4,63.2,29.83,SSE,168,3.0,3.0,96,0.43,,SKC,0.73,VWS V14.01,2013-05-10 10:26:00,
2013-05-10 05:31:00,64.3,63.1,29.83,South,190,0.0,4.0,96,0.45,,SKC,0.75,VWS V14.01,2013-05-10 10:31:00,
2013-05-10 05:36:00,64.3,63.1,29.83,South,190,0.0,2.0,96,0.31,,SKC,0.78,VWS V14.01,2013-05-10 10:36:00,
2013-05-10 05:41:00,64.4,63.2,29.82,South,190,0.0,2.0,96,0.33,,SKC,0.80,VWS V14.01,2013-05-10 10:41:00,
2013-05-10 05:47:00,64.4,63.2,29.83,South,190,0.0,2.0,96,0.36,,SKC,0.83,VWS V14.01,2013-05-10 10:47:00,
2013-05-10 05:52:00,64.4,63.2,29.83,South,190,0.0,2.0,96,0.38,,SKC,0.85,VWS V14.01,2013-05-10 10:52:00,
2013-05-10 05:57:00,64.6,63.4,29.82,South,190,3.0,4.0,96,0.42,,SKC,0.89,VWS V14.01,2013-05-10 10:57:00,
2013-05-10 06:02:00,64.6,63.4,29.82,South,190,0.0,4.0,96,0.44,,SKC,0.91,VWS V14.01,2013-05-10 11:02:00,
2013-05-10 06:07:00,64.6,63.4,29.83,South,190,0.0,0.0,96,0.33,,SKC,0.94,VWS V14.01,2013-05-10 11:07:00,
2013-05-10 06:12:00,64.6,63.4,29.83,South,190,2.0,4.0,96,0.36,,SKC,0.97,VWS V14.01,2013-05-10 11:12:00,
2013-05-10 06:17:00,64.6,63.4,29.82,SE,138,0.0,4.0,96,0.39,,SKC,1.00,VWS V14.01,2013-05-10 11:17:00,
2013-05-10 06:22:00,64.5,63.3,29.83,SE,128,0.0,4.0,96,0.42,,SKC,1.03,VWS V14.01,2013-05-10 11:22:00,
2013-05-10 06:27:00,64.5,63.3,29.83,SE,128,0.0,4.0,96,0.44,,SKC,1.05,VWS V14.01,2013-05-10 11:27:00,
2013-05-10 06:32:00,64.6,63.4,29.83,SE,128,0.0,4.0,96,0.47,,SKC,1.08,VWS V14.01,2013-05-10 11:32:00,
2013-05-10 06:37:00,64.6,63.4,29.83,SSW,199,0.0,0.0,96,0.34,,SKC,1.10,VWS V14.01,2013-05-10 11:37:00,
2013-05-10 06:43:00,64.7,63.5,29.83,South,185,0.0,0.0,96,0.37,,SKC,1.13,VWS V14.01,2013-05-10 11:43:00,
2013-05-10 06:48:00,64.7,63.5,29.83,South,185,0.0,0.0,96,0.39,,SKC,1.15,VWS V14.01,2013-05-10 11:48:00,
2013-05-10 06:53:00,64.8,63.6,29.84,South,184,0.0,0.0,96,0.41,,SKC,1.17,VWS V14.01,2013-05-10 11:53:00,
2013-05-10 06:58:00,64.8,63.6,29.84,South,185,0.0,0.0,96,0.43,,SKC,1.19,VWS V14.01,2013-05-10 11:58:00,
2013-05-10 07:03:00,64.9,63.7,29.84,South,184,0.0,0.0,96,0.29,,SKC,1.21,VWS V14.01,2013-05-10 12:03:00,
2013-05-10 07:08:00,65.0,64.1,29.84,South,185,0.0,0.0,97,0.30,,SKC,1.22,VWS V14.01,2013-05-10 12:08:00,
2013-05-10 07:13:00,65.0,64.1,29.85,South,185,0.0,0.0,97,0.31,,SKC,1.23,VWS V14.01,2013-05-10 12:13:00,
2013-05-10 07:18:00,65.0,64.1,29.85,South,185,0.0,0.0,97,0.33,,SKC,1.25,VWS V14.01,2013-05-10 12:18:00,
2013-05-10 07:23:00,65.1,64.2,29.85,West,281,0.0,0.0,97,0.34,,SKC,1.26,VWS V14.01,2013-05-10 12:23:00,
2013-05-10 07:29:00,65.1,64.2,29.84,West,281,2.0,3.0,97,0.36,,SKC,1.28,VWS V14.01,2013-05-10 12:29:00,
2013-05-10 07:34:00,65.0,64.1,29.84,West,279,2.0,3.0,97,0.21,,SKC,1.29,VWS V14.01,2013-05-10 12:34:00,
2013-05-10 07:39:00,65.0,64.1,29.84,NW,304,2.0,4.0,97,0.22,,SKC,1.30,VWS V14.01,2013-05-10 12:39:00,
2013-05-10 07:44:00,65.0,64.1,29.84,South,171,4.0,6.0,97,0.23,,SKC,1.31,VWS V14.01,2013-05-10 12:44:00,
2013-05-10 07:49:00,65.1,64.2,29.84,South,171,3.0,6.0,97,0.24,,SKC,1.32,VWS V14.01,2013-05-10 12:49:00,
2013-05-10 07:54:00,65.0,64.1,29.84,South,171,0.0,6.0,97,0.24,,SKC,1.32,VWS V14.01,2013-05-10 12:54:00,
2013-05-10 07:59:00,65.1,64.2,29.84,South,171,0.0,6.0,97,0.25,,SKC,1.33,VWS V14.01,2013-05-10 12:59:00,
2013-05-10 08:05:00,65.1,64.2,29.85,South,171,2.0,3.0,97,0.13,,SKC,1.33,VWS V14.01,2013-05-10 13:05:00,
2013-05-10 08:10:00,65.0,64.1,29.85,South,171,0.0,4.0,97,0.13,,SKC,1.33,VWS V14.01,2013-05-10 13:10:00,
2013-05-10 08:15:00,65.1,64.2,29.85,South,171,0.0,4.0,97,0.13,,SKC,1.33,VWS V14.01,2013-05-10 13:15:00,
2013-05-10 08:20:00,65.2,64.3,29.85,ESE,115,0.0,4.0,97,0.13,,SKC,1.33,VWS V14.01,2013-05-10 13:20:00,
2013-05-10 08:25:00,65.2,64.3,29.85,East,92,0.0,4.0,97,0.13,,SKC,1.33,VWS V14.01,2013-05-10 13:25:00,
2013-05-10 08:30:00,65.3,64.4,29.85,East,82,0.0,4.0,97,0.13,,SKC,1.33,VWS V14.01,2013-05-10 13:30:00,
2013-05-10 08:35:00,65.5,64.6,29.85,SE,141,3.0,4.0,97,0.05,,SKC,1.33,VWS V14.01,2013-05-10 13:35:00,
2013-05-10 08:40:00,65.5,64.6,29.85,SSW,202,0.0,4.0,97,0.05,,SKC,1.33,VWS V14.01,2013-05-10 13:40:00,
2013-05-10 08:45:00,65.5,64.6,29.85,SSW,202,0.0,4.0,97,0.05,,SKC,1.33,VWS V14.01,2013-05-10 13:45:00,
2013-05-10 08:50:00,65.7,64.8,29.85,SSW,202,2.0,4.0,97,0.05,,SKC,1.33,VWS V14.01,2013-05-10 13:50:00,
2013-05-10 08:56:00,65.9,65.0,29.85,South,190,1.0,4.0,97,0.05,,SKC,1.33,VWS V14.01,2013-05-10 13:56:00,
2013-05-10 09:01:00,66.1,65.2,29.85,South,190,0.0,4.0,97,0.05,,SKC,1.33,VWS V14.01,2013-05-10 14:01:00,
2013-05-10 09:06:00,66.4,65.5,29.85,SSW,205,2.0,4.0,97,0.00,,SKC,1.33,VWS V14.01,2013-05-10 14:06:00,
2013-05-10 09:11:00,66.6,65.7,29.86,SSW,205,0.0,4.0,97,0.00,,SKC,1.33,VWS V14.01,2013-05-10 14:11:00,
2013-05-10 09:16:00,66.8,65.9,29.86,SSW,205,0.0,4.0,97,0.00,,SKC,1.33,VWS V14.01,2013-05-10 14:16:00,
2013-05-10 09:21:00,67.0,66.1,29.86,SSW,205,0.0,4.0,97,0.00,,SKC,1.33,VWS V14.01,2013-05-10 14:21:00,
2013-05-10 09:26:00,67.1,66.2,29.86,SSW,205,0.0,4.0,97,0.00,,SKC,1.33,VWS V14.01,2013-05-10 14:26:00,
2013-05-10 09:31:00,67.3,66.4,29.86,SSE,161,2.0,5.0,97,0.00,,SKC,1.33,VWS V14.01,2013-05-10 14:31:00,
2013-05-10 09:36:00,67.4,66.5,29.86,SSW,199,0.0,5.0,97,0.00,,SKC,1.33,VWS V14.01,2013-05-10 14:36:00,
2013-05-10 09:41:00,67.6,66.7,29.86,SSW,207,0.0,5.0,97,0.00,,SKC,1.33,VWS V14.01,2013-05-10 14:41:00,
2013-05-10 09:46:00,67.4,66.5,29.86,SW,217,0.0,6.0,97,0.00,,SKC,1.33,VWS V14.01,2013-05-10 14:46:00,
2013-05-10 09:52:00,67.4,66.5,29.86,SW,217,1.0,6.0,97,0.00,,SKC,1.33,VWS V14.01,2013-05-10 14:52:00,
2013-05-10 09:57:00,67.4,66.5,29.86,SW,227,5.0,6.0,97,0.00,,SKC,1.33,VWS V14.01,2013-05-10 14:57:00,
2013-05-10 10:02:00,67.5,66.6,29.86,South,172,3.0,6.0,97,0.00,,SKC,1.33,VWS V14.01,2013-05-10 15:02:00,
2013-05-10 10:07:00,67.7,66.8,29.86,South,169,6.0,6.0,97,0.00,,SKC,1.33,VWS V14.01,2013-05-10 15:07:00,
2013-05-10 10:12:00,67.8,66.9,29.86,SW,218,3.0,6.0,97,0.00,,SKC,1.33,VWS V14.01,2013-05-10 15:12:00,
2013-05-10 10:17:00,68.0,66.8,29.86,SSW,204,3.0,6.0,96,0.00,,SKC,1.33,VWS V14.01,2013-05-10 15:17:00,
2013-05-10 10:22:00,68.5,67.3,29.86,South,190,0.0,6.0,96,0.00,,SKC,1.33,VWS V14.01,2013-05-10 15:22:00,
2013-05-10 10:27:00,69.2,68.0,29.86,SSW,206,0.0,6.0,96,0.00,,SKC,1.33,VWS V14.01,2013-05-10 15:27:00,
2013-05-10 10:32:00,69.3,68.1,29.86,SSE,153,2.0,7.0,96,0.00,,SKC,1.33,VWS V14.01,2013-05-10 15:32:00,
2013-05-10 10:37:00,69.6,68.1,29.85,SSE,163,0.0,6.0,95,0.00,,SKC,1.33,VWS V14.01,2013-05-10 15:37:00,
2013-05-10 10:42:00,69.9,68.1,29.86,WSW,240,2.0,6.0,94,0.00,,SKC,1.33,VWS V14.01,2013-05-10 15:42:00,
2013-05-10 10:47:00,70.0,67.9,29.86,SSE,158,3.0,9.0,93,0.00,,SKC,1.33,VWS V14.01,2013-05-10 15:47:00,
2013-05-10 10:52:00,70.4,67.7,29.86,SSE,167,1.0,11.0,91,0.00,,SKC,1.33,VWS V14.01,2013-05-10 15:52:00,
2013-05-10 10:57:00,70.8,67.7,29.87,SSE,163,3.0,12.0,90,0.00,,SKC,1.33,VWS V14.01,2013-05-10 15:57:00,
2013-05-10 11:02:00,71.0,67.6,29.87,SSW,203,3.0,12.0,89,0.00,,SKC,1.33,VWS V14.01,2013-05-10 16:02:00,
2013-05-10 11:08:00,71.3,67.2,29.86,South,180,1.0,12.0,87,0.00,,SKC,1.33,VWS V14.01,2013-05-10 16:08:00,
2013-05-10 11:13:00,71.5,67.4,29.86,South,173,1.0,12.0,87,0.00,,SKC,1.33,VWS V14.01,2013-05-10 16:13:00,
2013-05-10 11:18:00,71.9,68.2,29.87,SSE,168,0.0,12.0,88,0.00,,SKC,1.33,VWS V14.01,2013-05-10 16:18:00,
2013-05-10 11:23:00,72.0,67.2,29.87,SW,221,0.0,12.0,85,0.00,,SKC,1.33,VWS V14.01,2013-05-10 16:23:00,
2013-05-10 11:28:00,72.0,67.2,29.86,South,189,3.0,12.0,85,0.00,,SKC,1.33,VWS V14.01,2013-05-10 16:28:00,
2013-05-10 11:33:00,71.3,66.9,29.87,SSE,164,4.0,5.0,86,0.00,,SKC,1.33,VWS V14.01,2013-05-10 16:33:00,
2013-05-10 11:38:00,71.1,67.0,29.86,South,172,1.0,12.0,87,0.00,,SKC,1.33,VWS V14.01,2013-05-10 16:38:00,
2013-05-10 11:43:00,71.0,66.9,29.86,SSE,168,3.0,12.0,87,0.00,,SKC,1.33,VWS V14.01,2013-05-10 16:43:00,
2013-05-10 11:48:00,70.7,66.7,29.86,SE,143,7.0,12.0,87,0.00,,SKC,1.33,VWS V14.01,2013-05-10 16:48:00,
2013-05-10 11:53:00,70.7,67.0,29.86,South,176,4.0,12.0,88,0.00,,SKC,1.33,VWS V14.01,2013-05-10 16:53:00,
2013-05-10 11:58:00,71.0,67.3,29.86,SSE,159,5.0,12.0,88,0.00,,SKC,1.33,VWS V14.01,2013-05-10 16:58:00,
2013-05-10 12:04:00,71.0,66.9,29.86,SSW,203,5.0,7.0,87,0.00,,SKC,1.33,VWS V14.01,2013-05-10 17:04:00,
2013-05-10 12:09:00,71.3,67.2,29.86,South,181,3.0,7.0,87,0.00,,SKC,1.33,VWS V14.01,2013-05-10 17:09:00,
2013-05-10 12:14:00,71.7,67.6,29.86,South,182,3.0,9.0,87,0.00,,SKC,1.33,VWS V14.01,2013-05-10 17:14:00,
2013-05-10 12:19:00,71.8,67.1,29.86,SW,222,5.0,12.0,85,0.00,,SKC,1.33,VWS V14.01,2013-05-10 17:19:00,
2013-05-10 12:24:00,72.3,67.5,29.86,South,173,3.0,12.0,85,0.00,,SKC,1.33,VWS V14.01,2013-05-10 17:24:00,
2013-05-10 12:29:00,72.9,67.8,29.86,South,181,9.0,12.0,84,0.00,,SKC,1.33,VWS V14.01,2013-05-10 17:29:00,
2013-05-10 12:34:00,72.8,67.0,29.85,SE,144,11.0,14.0,82,0.00,,SKC,1.33,VWS V14.01,2013-05-10 17:34:00,
2013-05-10 12:39:00,72.6,67.2,29.85,SSE,165,7.0,14.0,83,0.00,,SKC,1.33,VWS V14.01,2013-05-10 17:39:00,
2013-05-10 12:44:00,72.7,67.6,29.85,South,183,2.0,14.0,84,0.00,,SKC,1.33,VWS V14.01,2013-05-10 17:44:00,
2013-05-10 12:49:00,73.0,67.5,29.85,South,179,7.0,14.0,83,0.00,,SKC,1.33,VWS V14.01,2013-05-10 17:49:00,
2013-05-10 12:54:00,72.7,66.9,29.85,SE,138,6.0,14.0,82,0.00,,SKC,1.33,VWS V14.01,2013-05-10 17:54:00,
2013-05-10 12:59:00,72.7,66.9,29.85,SSE,153,9.0,14.0,82,0.00,,SKC,1.33,VWS V14.01,2013-05-10 17:59:00,
2013-05-10 13:04:00,72.3,66.5,29.85,SSW,196,6.0,10.0,82,0.00,,SKC,1.33,VWS V14.01,2013-05-10 18:04:00,
2013-05-10 13:10:00,72.4,66.9,29.84,South,180,7.0,10.0,83,0.00,,SKC,1.33,VWS V14.01,2013-05-10 18:10:00,
2013-05-10 13:15:00,72.3,66.8,29.84,South,172,7.0,11.0,83,0.00,,SKC,1.33,VWS V14.01,2013-05-10 18:15:00,
2013-05-10 13:20:00,72.1,66.7,29.84,South,176,3.0,11.0,83,0.00,,SKC,1.33,VWS V14.01,2013-05-10 18:20:00,
2013-05-10 13:25:00,72.3,67.2,29.84,SW,215,2.0,11.0,84,0.00,,SKC,1.33,VWS V14.01,2013-05-10 18:25:00,
2013-05-10 13:30:00,72.7,67.2,29.84,SSE,167,0.0,11.0,83,0.00,,SKC,1.33,VWS V14.01,2013-05-10 18:30:00,
2013-05-10 13:35:00,73.1,68.0,29.83,SSE,164,0.0,5.0,84,0.00,,SKC,1.33,VWS V14.01,2013-05-10 18:35:00,
2013-05-10 13:40:00,74.0,68.2,29.83,SSW,213,0.0,6.0,82,0.00,,SKC,1.33,VWS V14.01,2013-05-10 18:40:00,
2013-05-10 13:45:00,74.4,68.2,29.83,SSW,212,0.0,6.0,81,0.00,,SKC,1.33,VWS V14.01,2013-05-10 18:45:00,
2013-05-10 13:50:00,74.5,67.6,29.83,SSE,160,4.0,8.0,79,0.00,,SKC,1.33,VWS V14.01,2013-05-10 18:50:00,
2013-05-10 13:55:00,74.3,67.4,29.83,South,169,0.0,8.0,79,0.00,,SKC,1.33,VWS V14.01,2013-05-10 18:55:00,
2013-05-10 14:00:00,74.2,67.3,29.83,SSE,157,1.0,8.0,79,0.00,,SKC,1.33,VWS V14.01,2013-05-10 19:00:00,
2013-05-10 14:05:00,74.2,67.3,29.83,South,187,7.0,12.0,79,0.00,,SKC,1.33,VWS V14.01,2013-05-10 19:05:00,
2013-05-10 14:10:00,74.2,68.0,29.83,SSE,167,4.0,12.0,81,0.00,,SKC,1.33,VWS V14.01,2013-05-10 19:10:00,
2013-05-10 14:15:00,74.8,67.5,29.83,SSE,165,3.0,12.0,78,0.00,,SKC,1.33,VWS V14.01,2013-05-10 19:15:00,
2013-05-10 14:21:00,74.8,67.5,29.83,SSW,194,12.0,12.0,78,0.00,,SKC,1.33,VWS V14.01,2013-05-10 19:21:00,
2013-05-10 14:26:00,74.5,67.6,29.82,SSE,163,4.0,12.0,79,0.00,,SKC,1.33,VWS V14.01,2013-05-10 19:26:00,
2013-05-10 14:31:00,74.6,67.7,29.82,SSE,150,7.0,12.0,79,0.00,,SKC,1.33,VWS V14.01,2013-05-10 19:31:00,
2013-05-10 14:36:00,74.6,67.3,29.82,SE,134,12.0,12.0,78,0.00,,SKC,1.33,VWS V14.01,2013-05-10 19:36:00,
2013-05-10 14:41:00,74.8,68.2,29.82,SSE,160,4.0,12.0,80,0.00,,SKC,1.33,VWS V14.01,2013-05-10 19:41:00,
2013-05-10 14:46:00,75.2,67.1,29.82,South,188,4.0,13.0,76,0.00,,SKC,1.33,VWS V14.01,2013-05-10 19:46:00,
2013-05-10 14:51:00,75.1,67.0,29.82,SSW,199,2.0,13.0,76,0.00,,SKC,1.33,VWS V14.01,2013-05-10 19:51:00,
2013-05-10 14:58:00,74.1,67.2,29.83,West,273,4.0,13.0,79,0.00,,SKC,1.33,VWS V14.01,2013-05-10 19:58:00,
2013-05-10 15:03:00,71.7,65.2,29.82,SE,145,3.0,3.0,80,0.01,,SKC,1.34,VWS V14.01,2013-05-10 20:03:00,
2013-05-10 15:08:00,69.2,64.5,29.83,SSE,150,5.0,5.0,85,0.01,,SKC,1.34,VWS V14.01,2013-05-10 20:08:00,
2013-05-10 15:13:00,68.0,64.3,29.83,SSE,150,3.0,8.0,88,0.01,,SKC,1.34,VWS V14.01,2013-05-10 20:13:00,
2013-05-10 15:18:00,67.5,64.5,29.83,SSE,163,4.0,8.0,90,0.02,,SKC,1.35,VWS V14.01,2013-05-10 20:18:00,
2013-05-10 15:24:00,67.2,64.5,29.83,SSE,167,2.0,8.0,91,0.03,,SKC,1.36,VWS V14.01,2013-05-10 20:24:00,
2013-05-10 15:29:00,67.4,64.7,29.84,South,169,4.0,8.0,91,0.04,,SKC,1.37,VWS V14.01,2013-05-10 20:29:00,
2013-05-10 15:34:00,67.6,64.9,29.83,SSE,168,0.0,4.0,91,0.05,,SKC,1.38,VWS V14.01,2013-05-10 20:34:00,
2013-05-10 15:39:00,67.8,65.1,29.83,SSE,168,3.0,4.0,91,0.05,,SKC,1.38,VWS V14.01,2013-05-10 20:39:00,
2013-05-10 15:44:00,68.1,65.4,29.83,SSW,209,0.0,5.0,91,0.06,,SKC,1.39,VWS V14.01,2013-05-10 20:44:00,
2013-05-10 15:49:00,68.4,65.7,29.83,SSW,200,0.0,5.0,91,0.07,,SKC,1.40,VWS V14.01,2013-05-10 20:49:00,
2013-05-10 15:54:00,68.9,66.5,29.83,SSW,198,0.0,5.0,92,0.08,,SKC,1.41,VWS V14.01,2013-05-10 20:54:00,
2013-05-10 16:00:00,69.6,67.5,29.83,SSW,198,1.0,5.0,93,0.09,,SKC,1.42,VWS V14.01,2013-05-10 21:00:00,
2013-05-10 16:06:00,70.1,67.7,29.83,SSW,198,0.0,4.0,92,0.09,,SKC,1.43,VWS V14.01,2013-05-10 21:06:00,
2013-05-10 16:11:00,70.5,67.4,29.83,SSE,167,4.0,6.0,90,0.10,,SKC,1.44,VWS V14.01,2013-05-10 21:11:00,
2013-05-10 16:16:00,70.8,67.7,29.83,SSE,168,0.0,6.0,90,0.11,,SKC,1.45,VWS V14.01,2013-05-10 21:16:00,
2013-05-10 16:21:00,71.0,67.6,29.82,SSE,168,0.0,6.0,89,0.12,,SKC,1.46,VWS V14.01,2013-05-10 21:21:00,
2013-05-10 16:26:00,70.9,67.2,29.82,South,182,3.0,6.0,88,0.12,,SKC,1.46,VWS V14.01,2013-05-10 21:26:00,
2013-05-10 16:31:00,70.8,67.1,29.82,SE,146,3.0,6.0,88,0.13,,SKC,1.47,VWS V14.01,2013-05-10 21:31:00,
2013-05-10 16:37:00,70.9,67.2,29.82,SE,146,0.0,3.0,88,0.10,,SKC,1.48,VWS V14.01,2013-05-10 21:37:00,
2013-05-10 16:42:00,70.8,66.7,29.82,SSE,152,2.0,5.0,87,0.10,,SKC,1.48,VWS V14.01,2013-05-10 21:42:00,
2013-05-10 16:47:00,71.0,67.6,29.81,SSE,152,3.0,5.0,89,0.11,,SKC,1.49,VWS V14.01,2013-05-10 21:47:00,
2013-05-10 16:52:00,71.0,67.3,29.81,SSE,153,0.0,5.0,88,0.12,,SKC,1.50,VWS V14.01,2013-05-10 21:52:00,
2013-05-10 16:58:00,71.3,67.9,29.81,SSE,152,0.0,5.0,89,0.13,,SKC,1.51,VWS V14.01,2013-05-10 21:58:00,
2013-05-10 16:59:00,71.3,67.9,29.81,SSE,153,0.0,5.0,89,0.13,,SKC,1.51,VWS V14.01,2013-05-10 21:59:00,
2013-05-10 17:00:00,71.4,68.3,29.81,SSE,153,0.0,5.0,90,0.13,,SKC,1.51,VWS V14.01,2013-05-10 22:00:00,
2013-05-10 17:05:00,71.5,68.1,29.81,SSE,153,0.0,0.0,89,0.10,,SKC,1.52,VWS V14.01,2013-05-10 22:05:00,
2013-05-10 17:10:00,71.6,68.2,29.81,SSE,153,0.0,3.0,89,0.10,,SKC,1.52,VWS V14.01,2013-05-10 22:10:00,
2013-05-10 17:15:00,72.1,69.3,29.80,SSE,153,0.0,3.0,91,0.11,,SKC,1.53,VWS V14.01,2013-05-10 22:15:00,
2013-05-10 17:20:00,72.2,68.1,29.80,SSE,153,0.0,3.0,87,0.11,,SKC,1.53,VWS V14.01,2013-05-10 22:20:00,
2013-05-10 17:25:00,72.5,68.4,29.80,SSE,153,0.0,3.0,87,0.12,,SKC,1.54,VWS V14.01,2013-05-10 22:25:00,
2013-05-10 17:30:00,72.6,67.8,29.79,ENE,72,0.0,3.0,85,0.12,,SKC,1.54,VWS V14.01,2013-05-10 22:30:00,
2013-05-10 17:35:00,72.6,67.8,29.79,ENE,75,0.0,0.0,85,0.07,,SKC,1.54,VWS V14.01,2013-05-10 22:35:00,
2013-05-10 17:41:00,72.4,68.0,29.80,East,95,0.0,0.0,86,0.08,,SKC,1.55,VWS V14.01,2013-05-10 22:41:00,
2013-05-10 17:46:00,72.4,68.0,29.79,NE,50,0.0,0.0,86,0.08,,SKC,1.55,VWS V14.01,2013-05-10 22:46:00,
2013-05-10 17:51:00,72.4,68.3,29.80,NE,50,0.0,0.0,87,0.09,,SKC,1.56,VWS V14.01,2013-05-10 22:51:00,
2013-05-10 17:56:00,72.2,67.8,29.79,ENE,57,1.0,3.0,86,0.09,,SKC,1.56,VWS V14.01,2013-05-10 22:56:00,
2013-05-10 18:01:00,72.0,67.6,29.80,SSE,164,0.0,6.0,86,0.09,,SKC,1.56,VWS V14.01,2013-05-10 23:01:00,
2013-05-10 18:06:00,71.6,67.5,29.80,SSE,161,1.0,4.0,87,0.06,,SKC,1.57,VWS V14.01,2013-05-10 23:06:00,
2013-05-10 18:11:00,71.2,67.1,29.80,SSE,160,2.0,4.0,87,0.06,,SKC,1.57,VWS V14.01,2013-05-10 23:11:00,
2013-05-10 18:16:00,71.0,67.3,29.80,SSE,161,1.0,4.0,88,0.06,,SKC,1.57,VWS V14.01,2013-05-10 23:16:00,
2013-05-10 18:21:00,70.6,66.9,29.81,SSE,160,2.0,4.0,88,0.07,,SKC,1.58,VWS V14.01,2013-05-10 23:21:00,
2013-05-10 18:26:00,70.4,67.0,29.81,SSE,159,3.0,5.0,89,0.07,,SKC,1.58,VWS V14.01,2013-05-10 23:26:00,
2013-05-10 18:31:00,70.1,67.0,29.82,SSE,161,1.0,6.0,90,0.07,,SKC,1.58,VWS V14.01,2013-05-10 23:31:00,
2013-05-10 18:36:00,69.9,67.2,29.81,SSE,162,0.0,1.0,91,0.04,,SKC,1.58,VWS V14.01,2013-05-10 23:36:00,
2013-05-10 18:41:00,69.9,67.5,29.82,SSE,161,0.0,1.0,92,0.04,,SKC,1.58,VWS V14.01,2013-05-10 23:41:00,
2013-05-10 18:46:00,69.8,67.4,29.82,SSE,161,0.0,2.0,92,0.05,,SKC,1.59,VWS V14.01,2013-05-10 23:46:00,
2013-05-10 18:51:00,69.8,67.7,29.82,SSE,161,0.0,3.0,93,0.05,,SKC,1.59,VWS V14.01,2013-05-10 23:51:00,
2013-05-10 18:56:00,69.7,67.6,29.82,SSE,162,0.0,3.0,93,0.05,,SKC,1.59,VWS V14.01,2013-05-10 23:56:00,
2013-05-10 19:01:00,69.4,67.3,29.82,SSE,162,0.0,4.0,93,0.05,,SKC,1.59,VWS V14.01,2013-05-11 00:01:00,
2013-05-10 19:06:00,69.0,66.6,29.82,West,267,0.0,3.0,92,0.03,,SKC,1.59,VWS V14.01,2013-05-11 00:06:00,
2013-05-10 19:11:00,68.7,66.3,29.82,West,267,0.0,3.0,92,0.04,,SKC,1.60,VWS V14.01,2013-05-11 00:11:00,
2013-05-10 19:16:00,68.6,66.2,29.82,West,267,0.0,3.0,92,0.04,,SKC,1.60,VWS V14.01,2013-05-11 00:16:00,
2013-05-10 19:21:00,68.4,66.0,29.82,ESE,113,0.0,3.0,92,0.04,,SKC,1.60,VWS V14.01,2013-05-11 00:21:00,
2013-05-10 19:27:00,68.4,66.0,29.82,WSW,242,0.0,3.0,92,0.04,,SKC,1.60,VWS V14.01,2013-05-11 00:27:00,
2013-05-10 19:32:00,68.2,65.8,29.82,WSW,242,0.0,3.0,92,0.04,,SKC,1.60,VWS V14.01,2013-05-11 00:32:00,
2013-05-10 19:37:00,68.1,65.7,29.82,WSW,242,0.0,0.0,92,0.02,,SKC,1.60,VWS V14.01,2013-05-11 00:37:00,
2013-05-10 19:42:00,68.1,66.0,29.82,WSW,242,0.0,0.0,93,0.02,,SKC,1.60,VWS V14.01,2013-05-11 00:42:00,
2013-05-10 19:47:00,68.0,65.9,29.82,WSW,242,0.0,0.0,93,0.02,,SKC,1.60,VWS V14.01,2013-05-11 00:47:00,
2013-05-10 19:52:00,67.9,65.8,29.83,WSW,242,0.0,0.0,93,0.02,,SKC,1.60,VWS V14.01,2013-05-11 00:52:00,
2013-05-10 19:57:00,67.7,65.6,29.83,WSW,242,0.0,0.0,93,0.02,,SKC,1.60,VWS V14.01,2013-05-11 00:57:00,
2013-05-10 20:02:00,67.6,65.5,29.83,WSW,242,0.0,0.0,93,0.03,,SKC,1.61,VWS V14.01,2013-05-11 01:02:00,
2013-05-10 20:07:00,67.5,65.7,29.82,WSW,242,0.0,0.0,94,0.02,,SKC,1.61,VWS V14.01,2013-05-11 01:07:00,
2013-05-10 20:12:00,67.5,65.7,29.82,WSW,242,0.0,0.0,94,0.02,,SKC,1.61,VWS V14.01,2013-05-11 01:12:00,
2013-05-10 20:17:00,67.3,65.5,29.82,WSW,242,0.0,0.0,94,0.02,,SKC,1.61,VWS V14.01,2013-05-11 01:17:00,
2013-05-10 20:23:00,67.1,65.3,29.82,WSW,242,0.0,0.0,94,0.02,,SKC,1.61,VWS V14.01,2013-05-11 01:23:00,
2013-05-10 20:28:00,67.0,65.2,29.82,WSW,242,0.0,0.0,94,0.02,,SKC,1.61,VWS V14.01,2013-05-11 01:28:00,
2013-05-10 20:33:00,67.0,65.2,29.82,WSW,242,0.0,0.0,94,0.01,,SKC,1.61,VWS V14.01,2013-05-11 01:33:00,
2013-05-10 20:38:00,66.9,65.4,29.82,WSW,242,0.0,0.0,95,0.01,,SKC,1.61,VWS V14.01,2013-05-11 01:38:00,
2013-05-10 20:43:00,66.9,65.4,29.83,WSW,242,0.0,0.0,95,0.02,,SKC,1.62,VWS V14.01,2013-05-11 01:43:00,
2013-05-10 20:49:00,66.9,65.4,29.83,WSW,242,0.0,0.0,95,0.02,,SKC,1.62,VWS V14.01,2013-05-11 01:49:00,
2013-05-10 20:54:00,66.9,65.4,29.83,WSW,242,0.0,0.0,95,0.02,,SKC,1.62,VWS V14.01,2013-05-11 01:54:00,
2013-05-10 20:59:00,66.9,65.4,29.83,WSW,242,0.0,0.0,95,0.02,,SKC,1.62,VWS V14.01,2013-05-11 01:59:00,
2013-05-10 21:04:00,66.8,65.3,29.83,WSW,242,0.0,0.0,95,0.01,,SKC,1.62,VWS V14.01,2013-05-11 02:04:00,
2013-05-10 21:09:00,66.8,65.3,29.84,WSW,242,0.0,0.0,95,0.01,,SKC,1.62,VWS V14.01,2013-05-11 02:09:00,
2013-05-10 21:15:00,66.8,65.3,29.84,WSW,242,0.0,0.0,95,0.01,,SKC,1.62,VWS V14.01,2013-05-11 02:15:00,
2013-05-10 21:20:00,66.8,65.3,29.84,WSW,242,0.0,0.0,95,0.01,,SKC,1.62,VWS V14.01,2013-05-11 02:20:00,
2013-05-10 21:25:00,66.7,65.2,29.84,WSW,242,0.0,0.0,95,0.01,,SKC,1.62,VWS V14.01,2013-05-11 02:25:00,
2013-05-10 21:30:00,66.5,65.0,29.85,WSW,242,0.0,1.0,95,0.01,,SKC,1.62,VWS V14.01,2013-05-11 02:30:00,
2013-05-10 21:35:00,66.3,64.8,29.85,WSW,242,2.0,2.0,95,0.02,,SKC,1.63,VWS V14.01,2013-05-11 02:35:00,
2013-05-10 21:40:00,66.1,64.6,29.86,WSW,240,0.0,3.0,95,0.02,,SKC,1.63,VWS V14.01,2013-05-11 02:40:00,
2013-05-10 21:45:00,66.0,64.5,29.86,WSW,240,1.0,3.0,95,0.02,,SKC,1.63,VWS V14.01,2013-05-11 02:45:00,
2013-05-10 21:50:00,65.8,64.3,29.87,WSW,240,0.0,3.0,95,0.02,,SKC,1.63,VWS V14.01,2013-05-11 02:50:00,
2013-05-10 21:55:00,65.6,64.1,29.87,WSW,240,0.0,3.0,95,0.02,,SKC,1.63,VWS V14.01,2013-05-11 02:55:00,
2013-05-10 22:01:00,65.4,63.9,29.88,SW,231,1.0,3.0,95,0.02,,SKC,1.63,VWS V14.01,2013-05-11 03:01:00,
2013-05-10 22:06:00,65.3,63.5,29.88,SW,230,1.0,3.0,94,0.02,,SKC,1.64,VWS V14.01,2013-05-11 03:06:00,
2013-05-10 22:11:00,65.1,63.3,29.88,SSW,211,0.0,5.0,94,0.02,,SKC,1.64,VWS V14.01,2013-05-11 03:11:00,
2013-05-10 22:16:00,65.0,63.2,29.88,SSW,211,0.0,5.0,94,0.02,,SKC,1.64,VWS V14.01,2013-05-11 03:16:00,
2013-05-10 22:21:00,64.9,63.1,29.88,SSW,211,0.0,5.0,94,0.02,,SKC,1.64,VWS V14.01,2013-05-11 03:21:00,
2013-05-10 22:26:00,64.8,63.0,29.89,SSW,211,0.0,5.0,94,0.02,,SKC,1.64,VWS V14.01,2013-05-11 03:26:00,
2013-05-10 22:31:00,64.7,62.9,29.89,SSW,211,0.0,5.0,94,0.02,,SKC,1.64,VWS V14.01,2013-05-11 03:31:00,
2013-05-10 22:36:00,64.5,62.4,29.89,SSW,211,0.0,1.0,93,0.02,,SKC,1.64,VWS V14.01,2013-05-11 03:36:00,
2013-05-10 22:41:00,64.5,62.4,29.88,SSW,211,0.0,2.0,93,0.02,,SKC,1.64,VWS V14.01,2013-05-11 03:41:00,
2013-05-10 22:46:00,64.4,62.3,29.88,SSW,211,0.0,2.0,93,0.02,,SKC,1.64,VWS V14.01,2013-05-11 03:46:00,
2013-05-10 22:54:00,64.4,62.3,29.88,SSW,211,0.0,2.0,93,0.02,,SKC,1.64,VWS V14.01,2013-05-11 03:54:00,
2013-05-10 23:01:00,64.4,62.3,29.89,SSW,211,0.0,2.0,93,0.03,,SKC,1.65,VWS V14.01,2013-05-11 04:01:00,
2013-05-10 23:03:00,64.4,62.6,29.89,SSW,211,0.0,0.0,94,0.02,,SKC,1.65,VWS V14.01,2013-05-11 04:03:00,
2013-05-10 23:08:00,64.5,62.7,29.89,SSW,211,0.0,0.0,94,0.02,,SKC,1.65,VWS V14.01,2013-05-11 04:08:00,
2013-05-10 23:13:00,64.5,62.7,29.89,SSW,211,0.0,0.0,94,0.02,,SKC,1.65,VWS V14.01,2013-05-11 04:13:00,
2013-05-10 23:14:00,64.5,62.7,29.89,SSW,211,0.0,0.0,94,0.02,,SKC,1.65,VWS V14.01,2013-05-11 04:14:00,
2013-05-10 23:19:00,64.5,62.7,29.89,SSW,211,0.0,0.0,94,0.02,,SKC,1.65,VWS V14.01,2013-05-11 04:19:00,
2013-05-10 23:24:00,64.5,62.7,29.89,SSW,211,0.0,0.0,94,0.02,,SKC,1.65,VWS V14.01,2013-05-11 04:24:00,
2013-05-10 23:30:00,64.4,62.6,29.89,SSW,211,0.0,0.0,94,0.03,,SKC,1.66,VWS V14.01,2013-05-11 04:30:00,
2013-05-10 23:36:00,64.4,62.6,29.89,SSW,211,0.0,0.0,94,0.02,,SKC,1.66,VWS V14.01,2013-05-11 04:36:00,
2013-05-10 23:41:00,64.3,62.5,29.89,SSW,211,0.0,0.0,94,0.02,,SKC,1.66,VWS V14.01,2013-05-11 04:41:00,
2013-05-10 23:47:00,64.1,62.6,29.89,SSW,211,0.0,0.0,95,0.02,,SKC,1.66,VWS V14.01,2013-05-11 04:47:00,
2013-05-10 23:53:00,64.0,62.5,29.89,SSW,211,0.0,0.0,95,0.02,,SKC,1.66,VWS V14.01,2013-05-11 04:53:00,
2013-05-10 23:58:00,63.9,62.4,29.88,SSW,211,0.0,0.0,95,0.02,,SKC,1.66,VWS V14.01,2013-05-11 04:58:00,